createdAt,value
2019-04-29T00:01:19.244Z,102152.98
2019-04-29T00:03:52.937Z,102157.88
2019-04-29T00:06:26.688Z,102157.88
2019-04-29T00:09:00.414Z,102164.50
2019-04-29T00:11:34.116Z,102164.50
2019-04-29T00:14:07.824Z,102168.77
2019-04-29T00:16:41.531Z,102169.07
2019-04-29T00:19:15.224Z,102170.97
2019-04-29T00:21:48.941Z,102152.64
2019-04-29T00:24:22.653Z,102170.74
2019-04-29T00:26:56.423Z,102172.65
2019-04-29T00:29:30.133Z,102170.02
2019-04-29T00:32:03.844Z,102171.95
2019-04-29T00:34:37.510Z,102174.77
2019-04-29T00:37:11.237Z,102174.77
2019-04-29T00:39:45.003Z,102174.45
2019-04-29T00:42:18.715Z,102176.42
2019-04-29T00:44:52.423Z,102181.00
2019-04-29T00:47:26.133Z,102181.00
2019-04-29T00:49:59.846Z,102189.70
2019-04-29T00:52:33.546Z,102183.70
2019-04-29T00:55:07.244Z,102194.49
2019-04-29T00:57:40.954Z,102194.49
2019-04-29T01:00:14.660Z,102198.69
2019-04-29T01:02:48.366Z,102198.98
2019-04-29T01:05:22.106Z,102200.50
2019-04-29T01:07:55.866Z,102195.34
2019-04-29T01:10:29.724Z,102195.34
2019-04-29T01:13:03.456Z,102200.56
2019-04-29T01:15:37.217Z,102200.67
2019-04-29T01:18:10.947Z,102200.67
2019-04-29T01:20:44.646Z,102204.21
2019-04-29T01:23:18.346Z,102200.31
2019-04-29T01:25:52.083Z,102200.31
2019-04-29T01:28:25.780Z,102206.95
2019-04-29T01:31:04.260Z,102206.95
2019-04-29T01:33:38.226Z,102205.80
2019-04-29T01:36:11.921Z,102204.70
2019-04-29T01:38:48.590Z,102186.47
2019-04-29T01:41:21.026Z,102186.47
2019-04-29T01:43:54.722Z,102200.41
2019-04-29T01:46:28.694Z,102198.63
2019-04-29T01:49:02.404Z,102206.61
2019-04-29T01:51:36.106Z,102198.46
2019-04-29T01:54:09.816Z,102200.17
2019-04-29T01:56:43.521Z,102188.58
2019-04-29T01:59:17.189Z,102188.58
2019-04-29T02:01:50.909Z,102212.61
2019-04-29T02:04:24.602Z,102212.61
2019-04-29T02:06:58.326Z,102212.72
2019-04-29T02:09:32.044Z,102212.72
2019-04-29T02:12:05.741Z,102211.39
2019-04-29T02:14:39.446Z,102194.39
2019-04-29T02:17:13.733Z,102194.39
2019-04-29T02:19:47.432Z,102212.26
2019-04-29T02:22:21.152Z,102212.26
2019-04-29T02:24:54.836Z,102208.05
2019-04-29T02:27:28.585Z,102202.32
2019-04-29T02:30:03.443Z,102202.32
2019-04-29T02:32:37.508Z,102202.98
2019-04-29T02:35:11.214Z,102200.69
2019-04-29T02:37:44.919Z,102201.47
2019-04-29T02:40:18.637Z,102199.52
2019-04-29T02:42:52.346Z,102199.52
2019-04-29T02:45:26.038Z,102194.72
2019-04-29T02:47:59.750Z,102198.11
2019-04-29T02:50:33.536Z,102196.31
2019-04-29T02:53:07.261Z,102198.36
2019-04-29T02:55:41.251Z,102204.22
2019-04-29T02:58:14.946Z,102210.16
2019-04-29T03:00:48.663Z,102201.78
2019-04-29T03:03:22.327Z,102202.13
2019-04-29T03:05:56.065Z,102200.97
2019-04-29T03:08:29.762Z,102203.29
2019-04-29T03:11:03.459Z,102196.14
2019-04-29T03:13:37.170Z,102196.14
2019-04-29T03:16:10.886Z,102197.70
2019-04-29T03:18:44.579Z,102203.34
2019-04-29T03:21:18.300Z,102200.29
2019-04-29T03:23:52.102Z,102199.71
2019-04-29T03:26:25.912Z,102199.97
2019-04-29T03:28:59.757Z,102199.97
2019-04-29T03:31:39.090Z,102199.95
2019-04-29T03:34:08.870Z,102195.33
2019-04-29T03:36:42.572Z,102197.60
2019-04-29T03:39:16.364Z,102194.62
2019-04-29T03:41:50.088Z,102202.72
2019-04-29T03:44:23.796Z,102202.59
2019-04-29T03:46:57.497Z,102207.88
2019-04-29T03:49:31.217Z,102207.88
2019-04-29T03:52:04.929Z,102209.77
2019-04-29T03:54:38.722Z,102214.99
2019-04-29T03:57:12.459Z,102214.99
2019-04-29T03:59:46.166Z,102219.98
2019-04-29T04:02:19.867Z,102209.30
2019-04-29T04:04:53.663Z,102225.59
2019-04-29T04:07:27.386Z,102224.80
2019-04-29T04:10:01.141Z,102227.25
2019-04-29T04:12:34.869Z,102219.67
2019-04-29T04:15:08.677Z,102219.67
2019-04-29T04:17:42.395Z,102203.94
2019-04-29T04:20:16.103Z,102218.47
2019-04-29T04:22:49.891Z,102225.89
2019-04-29T04:25:23.583Z,102216.67
2019-04-29T04:27:57.301Z,102216.38
2019-04-29T04:30:30.993Z,102219.27
2019-04-29T04:33:04.702Z,102217.19
2019-04-29T04:35:38.429Z,102221.88
2019-04-29T04:38:13.175Z,102221.88
2019-04-29T04:40:46.909Z,102219.36
2019-04-29T04:43:20.602Z,102228.09
2019-04-29T04:45:54.313Z,102228.39
2019-04-29T04:48:28.002Z,102229.14
2019-04-29T04:51:01.791Z,102233.81
2019-04-29T04:53:35.504Z,102235.56
2019-04-29T04:56:09.199Z,102235.56
2019-04-29T04:58:42.940Z,102233.59
2019-04-29T05:01:16.659Z,102233.59
2019-04-29T05:03:50.386Z,102226.86
2019-04-29T05:06:24.098Z,102248.86
2019-04-29T05:08:57.804Z,102245.62
2019-04-29T05:11:31.510Z,102253.27
2019-04-29T05:14:05.223Z,102251.73
2019-04-29T05:16:38.922Z,102251.73
2019-04-29T05:19:13.702Z,102251.56
2019-04-29T05:21:47.428Z,102261.25
2019-04-29T05:24:21.127Z,102261.25
2019-04-29T05:26:54.836Z,102258.28
2019-04-29T05:29:28.899Z,102262.25
2019-04-29T05:32:03.704Z,102269.98
2019-04-29T05:34:41.710Z,102271.68
2019-04-29T05:37:13.596Z,102271.68
2019-04-29T05:39:47.310Z,102279.87
2019-04-29T05:42:21.036Z,102279.87
2019-04-29T05:44:54.732Z,102291.72
2019-04-29T05:47:28.457Z,102302.17
2019-04-29T05:50:02.159Z,102302.17
2019-04-29T05:52:39.529Z,102289.21
2019-04-29T05:55:13.768Z,102287.00
2019-04-29T05:57:46.985Z,102285.22
2019-04-29T06:00:23.309Z,102283.50
2019-04-29T06:02:56.074Z,102293.64
2019-04-29T06:05:29.787Z,102293.64
2019-04-29T06:08:03.510Z,102296.19
2019-04-29T06:10:37.215Z,102293.12
2019-04-29T06:13:10.929Z,102290.59
2019-04-29T06:15:44.638Z,102290.30
2019-04-29T06:18:22.216Z,102296.51
2019-04-29T06:21:07.878Z,102296.51
2019-04-29T06:23:29.195Z,102301.06
2019-04-29T06:26:02.904Z,102304.98
2019-04-29T06:28:36.600Z,102293.57
2019-04-29T06:31:10.311Z,102279.97
2019-04-29T06:33:44.010Z,102279.97
2019-04-29T06:36:18.724Z,102296.64
2019-04-29T06:38:53.782Z,102296.64
2019-04-29T06:41:27.518Z,102298.42
2019-04-29T06:44:06.658Z,102294.05
2019-04-29T06:46:36.631Z,102294.05
2019-04-29T06:49:10.922Z,102302.86
2019-04-29T06:51:44.713Z,102282.65
2019-04-29T06:54:18.443Z,102285.80
2019-04-29T06:56:52.144Z,102303.70
2019-04-29T06:59:25.862Z,102303.70
2019-04-29T07:01:59.573Z,102306.73
2019-04-29T07:04:38.408Z,102307.19
2019-04-29T07:07:08.696Z,102311.63
2019-04-29T07:09:42.423Z,102311.63
2019-04-29T07:12:16.150Z,102311.27
2019-04-29T07:14:49.852Z,102311.27
2019-04-29T07:17:23.601Z,102315.95
2019-04-29T07:19:57.500Z,102312.86
2019-04-29T07:22:32.711Z,102317.70
2019-04-29T07:25:06.434Z,102321.18
2019-04-29T07:27:43.393Z,102302.14
2019-04-29T07:30:15.592Z,102318.41
2019-04-29T07:32:49.302Z,102317.30
2019-04-29T07:35:23.062Z,102321.74
2019-04-29T07:37:56.755Z,102321.30
2019-04-29T07:40:30.456Z,102321.30
2019-04-29T07:43:07.697Z,102318.03
2019-04-29T07:45:44.455Z,102323.11
2019-04-29T07:48:15.021Z,102323.11
2019-04-29T07:50:48.795Z,102324.29
2019-04-29T07:53:35.024Z,102323.16
2019-04-29T07:56:01.722Z,102325.98
2019-04-29T07:58:33.391Z,102325.98
2019-04-29T08:01:07.081Z,102325.05
2019-04-29T08:03:40.783Z,102325.05
2019-04-29T08:06:14.511Z,102319.19
2019-04-29T08:08:55.144Z,102320.22
2019-04-29T08:11:23.903Z,102324.78
2019-04-29T08:13:57.893Z,102324.78
2019-04-29T08:16:31.599Z,102324.17
2019-04-29T08:19:05.552Z,102322.84
2019-04-29T08:21:39.435Z,102324.84
2019-04-29T08:24:15.823Z,102324.84
2019-04-29T08:26:49.165Z,102323.11
2019-04-29T08:29:22.889Z,102335.15
2019-04-29T08:32:00.013Z,102335.15
2019-04-29T08:34:32.010Z,102332.23
2019-04-29T08:37:05.813Z,102312.72
2019-04-29T08:39:39.534Z,102312.72
2019-04-29T08:42:14.053Z,102326.41
2019-04-29T08:44:47.776Z,102333.54
2019-04-29T08:47:22.928Z,102325.89
2019-04-29T08:49:56.897Z,102326.73
2019-04-29T08:52:30.623Z,102326.73
2019-04-29T08:55:04.604Z,102323.68
2019-04-29T08:57:38.311Z,102325.77
2019-04-29T09:00:12.112Z,102329.36
2019-04-29T09:02:47.339Z,102329.36
2019-04-29T09:05:21.252Z,102331.07
2019-04-29T09:07:57.314Z,102331.07
2019-04-29T09:10:32.979Z,102334.44
2019-04-29T09:13:05.942Z,102327.30
2019-04-29T09:15:39.665Z,102326.62
2019-04-29T09:18:13.383Z,102326.62
2019-04-29T09:20:47.168Z,102321.73
2019-04-29T09:23:20.893Z,102321.73
2019-04-29T09:26:02.426Z,102330.05
2019-04-29T09:28:30.120Z,102318.63
2019-04-29T09:31:04.096Z,102316.19
2019-04-29T09:33:37.806Z,102313.05
2019-04-29T09:36:13.968Z,102315.88
2019-04-29T09:38:46.998Z,102315.88
2019-04-29T09:41:20.698Z,102310.13
2019-04-29T09:43:54.427Z,102310.13
2019-04-29T09:46:29.983Z,102308.30
2019-04-29T09:49:03.547Z,102302.83
2019-04-29T09:51:37.293Z,102294.30
2019-04-29T09:54:14.517Z,102294.30
2019-04-29T09:56:46.534Z,102297.94
2019-04-29T09:59:20.283Z,102297.13
2019-04-29T10:01:55.093Z,102300.55
2019-04-29T10:04:29.553Z,102292.39
2019-04-29T10:07:03.449Z,102309.73
2019-04-29T10:09:37.205Z,102309.73
2019-04-29T10:12:11.007Z,102292.48
2019-04-29T10:14:44.847Z,102292.48
2019-04-29T10:17:18.694Z,102288.91
2019-04-29T10:19:53.007Z,102288.91
2019-04-29T10:22:26.812Z,102285.36
2019-04-29T10:25:00.739Z,102290.41
2019-04-29T10:27:34.468Z,102287.30
2019-04-29T10:30:08.367Z,102284.00
2019-04-29T10:32:42.614Z,102284.00
2019-04-29T10:35:17.453Z,102291.94
2019-04-29T10:37:51.270Z,102291.94
2019-04-29T10:40:25.022Z,102285.13
2019-04-29T10:42:58.785Z,102285.13
2019-04-29T10:45:32.591Z,102283.09
2019-04-29T10:48:06.328Z,102281.81
2019-04-29T10:50:40.092Z,102290.30
2019-04-29T10:53:15.521Z,102290.30
2019-04-29T10:55:49.417Z,102286.83
2019-04-29T10:58:29.825Z,102288.95
2019-04-29T11:01:18.673Z,102290.72
2019-04-29T11:03:55.943Z,102281.78
2019-04-29T11:06:31.284Z,102281.78
2019-04-29T11:09:04.800Z,102275.42
2019-04-29T11:11:38.527Z,102275.42
2019-04-29T11:14:12.236Z,102275.98
2019-04-29T11:16:46.944Z,102270.16
2019-04-29T11:19:20.940Z,102270.16
2019-04-29T11:21:54.662Z,102268.98
2019-04-29T11:24:28.417Z,102272.70
2019-04-29T11:27:11.632Z,102267.74
2019-04-29T11:29:37.562Z,102262.05
2019-04-29T11:32:11.452Z,102259.58
2019-04-29T11:34:48.336Z,102259.58
2019-04-29T11:37:23.720Z,102253.17
2019-04-29T11:39:57.257Z,102249.16
2019-04-29T11:42:31.868Z,102253.50
2019-04-29T11:45:06.579Z,102253.50
2019-04-29T11:47:40.298Z,102245.45
2019-04-29T11:50:14.203Z,102253.28
2019-04-29T11:52:48.243Z,102248.09
2019-04-29T11:55:22.028Z,102240.09
2019-04-29T11:57:55.757Z,102237.70
2019-04-29T12:00:29.483Z,102237.70
2019-04-29T12:03:03.194Z,102244.98
2019-04-29T12:05:40.137Z,102245.56
2019-04-29T12:08:17.074Z,102246.13
2019-04-29T12:11:05.674Z,102246.13
2019-04-29T12:13:27.070Z,102241.90
2019-04-29T12:15:58.707Z,102230.02
2019-04-29T12:18:34.022Z,102225.33
2019-04-29T12:21:07.953Z,102225.33
2019-04-29T12:23:41.690Z,102225.81
2019-04-29T12:26:15.569Z,102221.90
2019-04-29T12:28:49.338Z,102224.59
2019-04-29T12:31:26.093Z,102224.59
2019-04-29T12:34:00.880Z,102221.86
2019-04-29T12:36:36.789Z,102211.77
2019-04-29T12:39:10.076Z,102209.02
2019-04-29T12:41:48.890Z,102209.02
2019-04-29T12:44:19.248Z,102211.95
2019-04-29T12:46:52.975Z,102207.59
2019-04-29T12:49:26.718Z,102214.68
2019-04-29T12:52:00.523Z,102218.52
2019-04-29T12:54:34.245Z,102218.52
2019-04-29T12:57:07.954Z,102220.51
2019-04-29T12:59:41.802Z,102215.25
2019-04-29T13:02:15.631Z,102215.25
2019-04-29T13:04:50.339Z,102216.48
2019-04-29T13:07:24.754Z,102217.27
2019-04-29T13:10:02.160Z,102217.27
2019-04-29T13:12:33.914Z,102212.31
2019-04-29T13:15:12.126Z,102204.91
2019-04-29T13:17:43.110Z,102200.16
2019-04-29T13:20:16.812Z,102200.16
2019-04-29T13:22:50.534Z,102205.06
2019-04-29T13:25:26.838Z,102205.06
2019-04-29T13:28:04.051Z,102187.19
2019-04-29T13:30:35.140Z,102172.83
2019-04-29T13:33:16.386Z,102172.83
2019-04-29T13:35:49.571Z,102183.20
2019-04-29T13:38:19.671Z,102183.20
2019-04-29T13:41:11.818Z,102178.14
2019-04-29T13:43:28.816Z,102171.12
2019-04-29T13:46:05.244Z,102176.45
2019-04-29T13:48:54.679Z,102176.45
2019-04-29T13:51:13.352Z,102175.21
2019-04-29T13:53:47.067Z,102160.98
2019-04-29T13:56:35.111Z,102156.06
2019-04-29T13:58:58.741Z,102156.06
2019-04-29T14:01:33.476Z,102167.70
2019-04-29T14:04:07.027Z,102167.56
2019-04-29T14:06:40.729Z,102173.60
2019-04-29T14:09:14.467Z,102166.35
2019-04-29T14:12:01.042Z,102166.35
2019-04-29T14:14:24.641Z,102161.73
2019-04-29T14:18:53.558Z,102161.73
2019-04-29T14:19:40.818Z,102145.58
2019-04-29T14:22:21.485Z,102143.91
2019-04-29T14:24:47.057Z,102143.91
2019-04-29T14:27:25.178Z,102138.63
2019-04-29T14:29:56.544Z,102135.91
2019-04-29T14:32:36.074Z,102139.86
2019-04-29T14:35:07.093Z,102131.66
2019-04-29T14:37:54.573Z,102129.41
2019-04-29T14:40:17.768Z,102122.21
2019-04-29T14:42:57.861Z,102122.21
2019-04-29T14:45:29.843Z,102126.73
2019-04-29T14:48:04.178Z,102126.73
2019-04-29T14:50:37.981Z,102130.16
2019-04-29T14:53:11.682Z,102131.33
2019-04-29T14:55:45.411Z,102131.33
2019-04-29T14:58:19.140Z,102135.33
2019-04-29T15:00:52.925Z,102141.95
2019-04-29T15:03:27.210Z,102136.75
2019-04-29T15:06:06.549Z,102136.75
2019-04-29T15:08:40.296Z,102137.23
2019-04-29T15:11:14.079Z,102131.15
2019-04-29T15:13:48.848Z,102130.28
2019-04-29T15:16:22.941Z,102130.28
2019-04-29T15:18:56.665Z,102134.66
2019-04-29T15:21:32.656Z,102133.80
2019-04-29T15:24:05.939Z,102137.70
2019-04-29T15:26:39.675Z,102138.87
2019-04-29T15:29:13.551Z,102138.87
2019-04-29T15:31:48.979Z,102141.23
2019-04-29T15:34:22.814Z,102133.99
2019-04-29T15:36:56.557Z,102133.99
2019-04-29T15:39:30.456Z,102143.73
2019-04-29T15:42:06.681Z,102137.83
2019-04-29T15:44:39.751Z,102137.83
2019-04-29T15:47:13.818Z,102140.73
2019-04-29T15:49:47.557Z,102140.54
2019-04-29T15:52:25.948Z,102143.06
2019-04-29T15:54:56.711Z,102143.06
2019-04-29T15:57:30.665Z,102145.81
2019-04-29T16:00:21.513Z,102145.81
2019-04-29T16:02:44.224Z,102144.30
2019-04-29T16:05:18.465Z,102147.30
2019-04-29T16:07:55.806Z,102140.14
2019-04-29T16:10:27.621Z,102140.14
2019-04-29T16:13:01.362Z,102145.30
2019-04-29T16:15:35.491Z,102145.30
2019-04-29T16:18:10.719Z,102140.11
2019-04-29T16:20:44.859Z,102146.88
2019-04-29T16:23:19.940Z,102142.42
2019-04-29T16:25:54.498Z,102133.15
2019-04-29T16:28:31.772Z,102136.44
2019-04-29T16:31:05.024Z,102136.74
2019-04-29T16:33:39.522Z,102136.74
2019-04-29T16:36:14.204Z,102141.72
2019-04-29T16:38:51.394Z,102134.97
2019-04-29T16:41:25.707Z,102143.91
2019-04-29T16:43:59.409Z,102141.66
2019-04-29T16:46:37.603Z,102139.41
2019-04-29T16:49:08.576Z,102140.47
2019-04-29T16:51:42.320Z,102140.38
2019-04-29T16:54:20.560Z,102140.38
2019-04-29T16:56:51.400Z,102137.96
2019-04-29T16:59:25.168Z,102142.30
2019-04-29T17:02:00.530Z,102142.30
2019-04-29T17:04:34.280Z,102138.48
2019-04-29T17:07:13.056Z,102138.98
2019-04-29T17:09:43.488Z,102138.98
2019-04-29T17:12:17.204Z,102143.89
2019-04-29T17:15:04.184Z,102147.73
2019-04-29T17:17:29.174Z,102147.06
2019-04-29T17:20:01.906Z,102123.58
2019-04-29T17:22:42.728Z,102139.92
2019-04-29T17:25:11.046Z,102139.92
2019-04-29T17:27:45.406Z,102148.66
2019-04-29T17:30:19.282Z,102148.66
2019-04-29T17:32:55.267Z,102152.21
2019-04-29T17:35:29.725Z,102149.92
2019-04-29T17:38:03.433Z,102146.58
2019-04-29T17:40:37.165Z,102146.58
2019-04-29T17:43:10.872Z,102153.93
2019-04-29T17:45:52.689Z,102145.89
2019-04-29T17:48:26.409Z,102147.27
2019-04-29T17:51:00.262Z,102142.48
2019-04-29T17:53:35.460Z,102152.48
2019-04-29T17:56:09.339Z,102154.13
2019-04-29T17:58:43.960Z,102154.13
2019-04-29T18:01:18.494Z,102144.73
2019-04-29T18:03:52.271Z,102144.72
2019-04-29T18:06:28.195Z,102144.72
2019-04-29T18:09:01.417Z,102147.63
2019-04-29T18:11:48.880Z,102147.63
2019-04-29T18:14:10.810Z,102151.08
2019-04-29T18:16:47.850Z,102151.08
2019-04-29T18:19:20.567Z,102149.30
2019-04-29T18:21:56.048Z,102159.70
2019-04-29T18:24:35.966Z,102159.70
2019-04-29T18:27:05.374Z,102157.78
2019-04-29T18:29:41.556Z,102157.78
2019-04-29T18:32:15.532Z,102161.20
2019-04-29T18:34:49.455Z,102165.70
2019-04-29T18:37:24.904Z,102161.73
2019-04-29T18:40:02.203Z,102173.89
2019-04-29T18:42:34.190Z,102164.60
2019-04-29T18:45:07.909Z,102164.60
2019-04-29T18:47:41.635Z,102171.95
2019-04-29T18:50:15.909Z,102166.14
2019-04-29T18:52:49.710Z,102169.14
2019-04-29T18:55:23.446Z,102169.14
2019-04-29T18:57:58.477Z,102168.87
2019-04-29T19:00:32.312Z,102172.45
2019-04-29T19:03:06.558Z,102172.45
2019-04-29T19:05:40.528Z,102176.11
2019-04-29T19:08:19.168Z,102178.28
2019-04-29T19:10:51.111Z,102178.28
2019-04-29T19:13:26.041Z,102171.70
2019-04-29T19:16:09.476Z,102175.72
2019-04-29T19:18:35.453Z,102174.53
2019-04-29T19:21:09.176Z,102174.53
2019-04-29T19:23:42.934Z,102169.31
2019-04-29T19:26:18.225Z,102177.47
2019-04-29T19:28:52.155Z,102174.53
2019-04-29T19:31:25.882Z,102172.20
2019-04-29T19:33:59.629Z,102170.41
2019-04-29T19:36:35.251Z,102169.05
2019-04-29T19:39:08.766Z,102169.05
2019-04-29T19:41:42.469Z,102173.22
2019-04-29T19:44:16.198Z,102181.88
2019-04-29T19:46:49.937Z,102181.88
2019-04-29T19:49:25.715Z,102179.84
2019-04-29T19:51:59.157Z,102178.38
2019-04-29T19:54:32.961Z,102178.38
2019-04-29T19:57:07.612Z,102181.13
2019-04-29T19:59:50.581Z,102181.13
2019-04-29T20:02:17.592Z,102180.88
2019-04-29T20:04:53.770Z,102183.66
2019-04-29T20:07:28.059Z,102183.66
2019-04-29T20:10:05.750Z,102189.09
2019-04-29T20:12:38.958Z,102193.53
2019-04-29T20:15:13.412Z,102190.61
2019-04-29T20:17:49.577Z,102190.61
2019-04-29T20:20:25.274Z,102192.55
2019-04-29T20:22:59.453Z,102192.55
2019-04-29T20:25:38.077Z,102187.75
2019-04-29T20:28:13.164Z,102187.75
2019-04-29T20:30:45.692Z,102192.64
2019-04-29T20:33:19.916Z,102189.34
2019-04-29T20:35:55.815Z,102192.06
2019-04-29T20:38:29.953Z,102199.91
2019-04-29T20:41:07.691Z,102206.45
2019-04-29T20:43:40.392Z,102206.45
2019-04-29T20:46:15.949Z,102210.78
2019-04-29T20:48:50.475Z,102209.42
2019-04-29T20:51:32.199Z,102209.83
2019-04-29T20:54:00.723Z,102209.83
2019-04-29T20:56:35.378Z,102212.27
2019-04-29T20:59:12.670Z,102203.13
2019-04-29T21:01:45.065Z,102209.77
2019-04-29T21:04:31.098Z,102209.77
2019-04-29T21:07:01.908Z,102198.88
2019-04-29T21:09:30.332Z,102200.28
2019-04-29T21:12:04.479Z,102198.59
2019-04-29T21:14:38.357Z,102203.80
2019-04-29T21:17:26.141Z,102203.80
2019-04-29T21:19:48.689Z,102200.23
2019-04-29T21:22:23.723Z,102197.63
2019-04-29T21:24:57.824Z,102200.69
2019-04-29T21:27:31.568Z,102197.63
2019-04-29T21:30:05.634Z,102197.63
2019-04-29T21:32:39.369Z,102194.45
2019-04-29T21:35:17.187Z,102196.37
2019-04-29T21:37:48.617Z,102198.67
2019-04-29T21:40:24.238Z,102202.78
2019-04-29T21:42:57.775Z,102200.51
2019-04-29T21:45:31.480Z,102209.25
2019-04-29T21:48:05.205Z,102209.25
2019-04-29T21:50:38.919Z,102202.84
2019-04-29T21:53:14.941Z,102209.52
2019-04-29T21:55:48.918Z,102210.86
2019-04-29T21:58:22.633Z,102216.95
2019-04-29T22:00:59.071Z,102219.65
2019-04-29T22:03:32.048Z,102219.65
2019-04-29T22:06:05.905Z,102213.39
2019-04-29T22:08:39.716Z,102222.60
2019-04-29T22:11:13.531Z,102222.60
2019-04-29T22:13:47.240Z,102215.14
2019-04-29T22:16:20.953Z,102218.70
2019-04-29T22:18:55.377Z,102219.61
2019-04-29T22:21:29.261Z,102219.61
2019-04-29T22:24:02.990Z,102216.76
2019-04-29T22:26:36.709Z,102224.10
2019-04-29T22:29:10.415Z,102224.10
2019-04-29T22:31:45.870Z,102227.95
2019-04-29T22:34:19.800Z,102231.80
2019-04-29T22:36:58.381Z,102231.80
2019-04-29T22:39:30.200Z,102227.19
2019-04-29T22:42:04.122Z,102224.25
2019-04-29T22:44:37.836Z,102236.19
2019-04-29T22:47:11.561Z,102232.69
2019-04-29T22:49:45.455Z,102229.16
2019-04-29T22:52:20.526Z,102232.48
2019-04-29T22:54:57.955Z,102232.48
2019-04-29T22:57:31.593Z,102232.55
2019-04-29T23:00:08.094Z,102232.55
2019-04-29T23:02:41.832Z,102221.76
2019-04-29T23:05:15.554Z,102221.76
2019-04-29T23:07:52.885Z,102217.29
2019-04-29T23:10:27.833Z,102213.03
2019-04-29T23:13:00.104Z,102210.02
2019-04-29T23:15:35.554Z,102211.17
2019-04-29T23:18:09.236Z,102201.52
2019-04-29T23:20:42.947Z,102200.79
2019-04-29T23:23:16.668Z,102200.79
2019-04-29T23:25:50.407Z,102200.79
2019-04-29T23:28:26.926Z,102195.77
2019-04-29T23:30:59.544Z,102195.77
2019-04-29T23:33:33.279Z,102195.59
2019-04-29T23:36:09.715Z,102201.77
2019-04-29T23:38:43.061Z,102200.63
2019-04-29T23:41:17.896Z,102200.63
2019-04-29T23:43:51.602Z,102198.27
2019-04-29T23:46:25.323Z,102204.62
2019-04-29T23:49:03.356Z,102202.03
2019-04-29T23:51:37.602Z,102192.86
2019-04-29T23:54:09.890Z,102192.86
2019-04-29T23:56:46.253Z,102198.02
2019-04-29T23:59:19.096Z,102196.37
